createdAt,value
2022-09-26T00:00:16.715Z,11.47
2022-09-26T00:01:16.799Z,11.44
2022-09-26T00:02:16.750Z,11.44
2022-09-26T00:03:16.687Z,11.44
2022-09-26T00:04:16.692Z,11.44
2022-09-26T00:05:16.664Z,11.44
2022-09-26T00:06:16.653Z,11.44
2022-09-26T00:07:16.635Z,11.43
2022-09-26T00:08:16.875Z,11.47
2022-09-26T00:09:16.615Z,11.47
2022-09-26T00:10:16.603Z,11.44
2022-09-26T00:11:16.602Z,11.41
2022-09-26T00:12:16.591Z,11.39
2022-09-26T00:13:16.583Z,11.41
2022-09-26T00:14:16.557Z,11.43
2022-09-26T00:15:16.554Z,11.41
2022-09-26T00:16:16.574Z,11.43
2022-09-26T00:17:16.535Z,11.41
2022-09-26T00:18:16.545Z,11.41
2022-09-26T00:19:16.504Z,11.41
2022-09-26T00:20:16.498Z,11.39
2022-09-26T00:21:16.484Z,11.39
2022-09-26T00:22:16.472Z,11.38
2022-09-26T00:23:16.472Z,11.39
2022-09-26T00:24:16.472Z,11.39
2022-09-26T00:25:16.452Z,11.38
2022-09-26T00:26:16.432Z,11.39
2022-09-26T00:27:16.426Z,11.38
2022-09-26T00:28:16.405Z,11.38
2022-09-26T00:29:16.647Z,11.39
2022-09-26T00:30:16.383Z,11.41
2022-09-26T00:31:16.414Z,11.38
2022-09-26T00:32:16.363Z,11.38
2022-09-26T00:33:16.353Z,11.35
2022-09-26T00:34:16.351Z,11.38
2022-09-26T00:35:16.350Z,11.38
2022-09-26T00:36:16.329Z,11.36
2022-09-26T00:37:16.308Z,11.35
2022-09-26T00:38:16.297Z,11.34
2022-09-26T00:39:16.438Z,11.34
2022-09-26T00:40:16.345Z,11.34
2022-09-26T00:41:16.294Z,11.27
2022-09-26T00:42:16.252Z,11.27
2022-09-26T00:43:16.239Z,11.27
2022-09-26T00:44:16.260Z,11.28
2022-09-26T00:45:16.238Z,11.25
2022-09-26T00:46:16.379Z,11.24
2022-09-26T00:47:16.194Z,11.24
2022-09-26T00:48:16.211Z,11.20
2022-09-26T00:49:16.177Z,11.20
2022-09-26T00:50:16.203Z,11.19
2022-09-26T00:51:16.166Z,11.19
2022-09-26T00:52:16.138Z,11.19
2022-09-26T00:53:16.127Z,11.20
2022-09-26T00:54:16.134Z,11.19
2022-09-26T00:55:16.127Z,11.19
2022-09-26T00:56:16.118Z,11.16
2022-09-26T00:57:16.078Z,11.16
2022-09-26T00:58:16.077Z,11.13
2022-09-26T00:59:16.059Z,11.14
2022-09-26T01:00:16.046Z,11.14
2022-09-26T01:01:16.215Z,11.16
2022-09-26T01:02:16.146Z,11.11
2022-09-26T01:03:16.018Z,11.16
2022-09-26T01:04:16.006Z,11.16
2022-09-26T01:05:15.996Z,11.13
2022-09-26T01:06:15.996Z,11.13
2022-09-26T01:07:15.975Z,11.13
2022-09-26T01:08:15.977Z,11.11
2022-09-26T01:09:15.981Z,11.09
2022-09-26T01:10:15.949Z,11.11
2022-09-26T01:11:17.270Z,11.10
2022-09-26T01:12:15.914Z,11.09
2022-09-26T01:13:15.917Z,11.09
2022-09-26T01:14:15.899Z,11.07
2022-09-26T01:15:15.900Z,11.06
2022-09-26T01:16:15.954Z,11.03
2022-09-26T01:17:15.853Z,11.03
2022-09-26T01:18:15.843Z,10.99
2022-09-26T01:19:15.834Z,10.96
2022-09-26T01:20:15.831Z,10.95
2022-09-26T01:21:15.823Z,10.96
2022-09-26T01:22:15.833Z,10.94
2022-09-26T01:23:15.792Z,10.94
2022-09-26T01:24:15.784Z,10.94
2022-09-26T01:25:15.782Z,10.94
2022-09-26T01:26:15.881Z,10.89
2022-09-26T01:27:15.753Z,10.94
2022-09-26T01:28:15.752Z,10.92
2022-09-26T01:29:15.738Z,10.94
2022-09-26T01:30:15.724Z,10.94
2022-09-26T01:31:15.749Z,10.94
2022-09-26T01:32:15.761Z,10.95
2022-09-26T01:33:15.739Z,10.94
2022-09-26T01:34:15.671Z,10.95
2022-09-26T01:35:15.664Z,10.91
2022-09-26T01:36:15.652Z,10.95
2022-09-26T01:37:15.641Z,10.95
2022-09-26T01:38:15.648Z,10.94
2022-09-26T01:39:15.803Z,10.94
2022-09-26T01:40:15.644Z,10.89
2022-09-26T01:41:15.593Z,10.94
2022-09-26T01:42:15.583Z,10.94
2022-09-26T01:43:15.615Z,10.98
2022-09-26T01:44:15.561Z,10.99
2022-09-26T01:45:15.549Z,10.98
2022-09-26T01:46:15.654Z,11.02
2022-09-26T01:47:15.550Z,11.01
2022-09-26T01:48:15.549Z,11.02
2022-09-26T01:49:15.597Z,11.03
2022-09-26T01:50:15.488Z,11.06
2022-09-26T01:51:15.469Z,11.07
2022-09-26T01:52:15.477Z,11.06
2022-09-26T01:53:15.461Z,11.07
2022-09-26T01:54:15.458Z,11.09
2022-09-26T01:55:15.438Z,11.10
2022-09-26T01:56:15.438Z,11.09
2022-09-26T01:57:15.421Z,11.10
2022-09-26T01:58:15.408Z,11.10
2022-09-26T01:59:15.472Z,11.11
2022-09-26T02:00:15.379Z,11.10
2022-09-26T02:01:23.057Z,11.10
2022-09-26T02:02:15.409Z,11.13
2022-09-26T02:03:15.343Z,11.11
2022-09-26T02:04:15.347Z,11.10
2022-09-26T02:05:15.321Z,11.11
2022-09-26T02:06:15.326Z,11.13
2022-09-26T02:07:15.303Z,11.11
2022-09-26T02:08:15.288Z,11.13
2022-09-26T02:09:15.357Z,11.13
2022-09-26T02:10:15.275Z,11.14
2022-09-26T02:11:15.283Z,11.14
2022-09-26T02:12:15.243Z,11.14
2022-09-26T02:13:15.273Z,11.14
2022-09-26T02:14:15.224Z,11.17
2022-09-26T02:15:15.209Z,11.16
2022-09-26T02:16:15.238Z,11.16
2022-09-26T02:17:15.193Z,11.16
2022-09-26T02:18:15.185Z,11.17
2022-09-26T02:19:15.271Z,11.20
2022-09-26T02:20:15.152Z,11.17
2022-09-26T02:21:15.145Z,11.16
2022-09-26T02:22:15.150Z,11.16
2022-09-26T02:23:15.115Z,11.17
2022-09-26T02:24:15.123Z,11.16
2022-09-26T02:25:15.109Z,11.13
2022-09-26T02:26:15.100Z,11.14
2022-09-26T02:27:15.084Z,11.11
2022-09-26T02:28:15.076Z,11.13
2022-09-26T02:29:15.257Z,11.11
2022-09-26T02:30:15.049Z,11.14
2022-09-26T02:31:15.046Z,11.13
2022-09-26T02:32:15.096Z,11.13
2022-09-26T02:33:15.018Z,11.14
2022-09-26T02:34:15.010Z,11.16
2022-09-26T02:35:14.980Z,11.17
2022-09-26T02:36:14.991Z,11.16
2022-09-26T02:37:14.980Z,11.17
2022-09-26T02:38:14.970Z,11.19
2022-09-26T02:39:15.085Z,11.20
2022-09-26T02:40:14.977Z,11.17
2022-09-26T02:41:14.936Z,11.20
2022-09-26T02:42:14.909Z,11.21
2022-09-26T02:43:14.909Z,11.20
2022-09-26T02:44:14.906Z,11.21
2022-09-26T02:45:14.877Z,11.21
2022-09-26T02:46:14.959Z,11.21
2022-09-26T02:47:14.860Z,11.21
2022-09-26T02:48:14.859Z,11.24
2022-09-26T02:49:14.965Z,11.25
2022-09-26T02:50:14.823Z,11.25
2022-09-26T02:51:14.808Z,11.25
2022-09-26T02:52:14.806Z,11.20
2022-09-26T02:53:14.798Z,11.21
2022-09-26T02:54:14.779Z,11.21
2022-09-26T02:55:14.774Z,11.24
2022-09-26T02:56:14.756Z,11.25
2022-09-26T02:57:14.737Z,11.25
2022-09-26T02:58:14.739Z,11.27
2022-09-26T02:59:14.876Z,11.24
2022-09-26T03:00:14.720Z,11.24
2022-09-26T03:01:14.730Z,11.24
2022-09-26T03:02:14.695Z,11.25
2022-09-26T03:03:14.688Z,11.25
2022-09-26T03:04:14.777Z,11.25
2022-09-26T03:05:14.657Z,11.25
2022-09-26T03:06:14.660Z,11.25
2022-09-26T03:07:14.625Z,11.28
2022-09-26T03:08:14.625Z,11.25
2022-09-26T03:09:14.750Z,11.25
2022-09-26T03:10:14.612Z,11.24
2022-09-26T03:11:14.597Z,11.24
2022-09-26T03:12:14.575Z,11.24
2022-09-26T03:13:14.566Z,11.24
2022-09-26T03:14:14.564Z,11.21
2022-09-26T03:15:14.542Z,11.25
2022-09-26T03:16:14.629Z,11.21
2022-09-26T03:17:14.514Z,11.21
2022-09-26T03:18:14.519Z,11.21
2022-09-26T03:19:14.680Z,11.20
2022-09-26T03:20:14.492Z,11.20
2022-09-26T03:21:14.483Z,11.20
2022-09-26T03:22:14.465Z,11.21
2022-09-26T03:23:14.450Z,11.21
2022-09-26T03:24:14.479Z,11.20
2022-09-26T03:25:14.433Z,11.21
2022-09-26T03:26:14.456Z,11.19
2022-09-26T03:27:14.413Z,11.19
2022-09-26T03:28:14.410Z,11.20
2022-09-26T03:29:14.543Z,11.19
2022-09-26T03:30:14.391Z,11.20
2022-09-26T03:31:14.409Z,11.19
2022-09-26T03:32:14.471Z,11.19
2022-09-26T03:33:14.362Z,11.20
2022-09-26T03:34:14.342Z,11.19
2022-09-26T03:35:14.359Z,11.16
2022-09-26T03:36:14.311Z,11.16
2022-09-26T03:37:14.303Z,11.13
2022-09-26T03:38:14.693Z,11.13
2022-09-26T03:39:14.389Z,11.13
2022-09-26T03:40:14.322Z,11.11
2022-09-26T03:41:14.250Z,11.09
2022-09-26T03:42:14.261Z,11.09
2022-09-26T03:43:14.230Z,11.07
2022-09-26T03:44:14.220Z,11.03
2022-09-26T03:45:14.218Z,11.06
2022-09-26T03:46:14.228Z,11.02
2022-09-26T03:47:14.178Z,11.02
2022-09-26T03:48:14.176Z,10.98
2022-09-26T03:49:14.248Z,10.98
2022-09-26T03:50:14.164Z,10.98
2022-09-26T03:51:14.146Z,10.96
2022-09-26T03:52:14.131Z,10.96
2022-09-26T03:53:14.128Z,10.96
2022-09-26T03:54:14.112Z,10.96
2022-09-26T03:55:14.115Z,10.98
2022-09-26T03:56:14.087Z,10.99
2022-09-26T03:57:14.080Z,10.96
2022-09-26T03:58:14.067Z,10.94
2022-09-26T03:59:14.156Z,10.94
2022-09-26T04:00:14.049Z,10.94
2022-09-26T04:01:14.124Z,10.89
2022-09-26T04:02:14.115Z,10.91
2022-09-26T04:03:14.017Z,10.92
2022-09-26T04:04:13.996Z,10.94
2022-09-26T04:05:13.986Z,10.92
2022-09-26T04:06:13.974Z,10.94
2022-09-26T04:07:13.969Z,10.94
2022-09-26T04:08:13.953Z,10.92
2022-09-26T04:09:16.972Z,10.91
2022-09-26T04:10:13.957Z,10.92
2022-09-26T04:11:13.906Z,10.92
2022-09-26T04:12:13.903Z,10.94
2022-09-26T04:13:33.647Z,10.92
2022-09-26T04:14:14.881Z,10.92
2022-09-26T04:15:13.862Z,10.92
2022-09-26T04:16:13.902Z,10.92
2022-09-26T04:17:13.858Z,10.91
2022-09-26T04:18:13.830Z,10.91
2022-09-26T04:19:13.923Z,10.94
2022-09-26T04:20:13.819Z,10.94
2022-09-26T04:21:13.805Z,10.91
2022-09-26T04:22:13.814Z,10.92
2022-09-26T04:23:13.772Z,10.92
2022-09-26T04:24:13.783Z,10.92
2022-09-26T04:25:13.753Z,10.91
2022-09-26T04:26:16.479Z,10.91
2022-09-26T04:27:14.722Z,10.92
2022-09-26T04:28:13.733Z,10.84
2022-09-26T04:29:13.869Z,10.84
2022-09-26T04:30:13.713Z,10.84
2022-09-26T04:31:13.753Z,10.86
2022-09-26T04:32:13.672Z,10.86
2022-09-26T04:33:13.669Z,10.89
2022-09-26T04:34:13.652Z,10.91
2022-09-26T04:35:13.639Z,10.91
2022-09-26T04:36:13.652Z,10.94
2022-09-26T04:37:13.633Z,10.94
2022-09-26T04:38:13.613Z,10.94
2022-09-26T04:39:13.759Z,10.95
2022-09-26T04:40:13.618Z,10.94
2022-09-26T04:41:13.570Z,10.92
2022-09-26T04:42:13.569Z,10.95
2022-09-26T04:43:13.561Z,10.92
2022-09-26T04:44:13.543Z,10.94
2022-09-26T04:45:13.598Z,10.94
2022-09-26T04:46:17.195Z,10.95
2022-09-26T04:47:14.541Z,10.95
2022-09-26T04:48:13.507Z,10.96
2022-09-26T04:49:13.565Z,10.95
2022-09-26T04:50:13.468Z,10.96
2022-09-26T04:51:13.458Z,10.96
2022-09-26T04:52:13.507Z,10.96
2022-09-26T04:53:13.441Z,10.98
2022-09-26T04:54:13.423Z,10.98
2022-09-26T04:55:13.531Z,10.98
2022-09-26T04:56:13.408Z,10.99
2022-09-26T04:57:18.759Z,11.02
2022-09-26T04:58:14.409Z,11.02
2022-09-26T04:59:13.369Z,11.02
2022-09-26T05:00:13.359Z,11.02
2022-09-26T05:01:13.512Z,11.03
2022-09-26T05:02:13.386Z,11.03
2022-09-26T05:03:13.336Z,11.03
2022-09-26T05:04:13.316Z,11.07
2022-09-26T05:05:13.299Z,11.07
2022-09-26T05:06:13.324Z,11.06
2022-09-26T05:07:14.281Z,11.03
2022-09-26T05:08:13.278Z,11.09
2022-09-26T05:09:13.257Z,11.09
2022-09-26T05:10:13.245Z,11.07
2022-09-26T05:11:13.238Z,11.07
2022-09-26T05:12:13.217Z,11.09
2022-09-26T05:13:13.217Z,11.09
2022-09-26T05:14:13.205Z,11.11
2022-09-26T05:15:13.185Z,11.10
2022-09-26T05:16:13.299Z,11.07
2022-09-26T05:17:13.163Z,11.11
2022-09-26T05:18:13.164Z,11.09
2022-09-26T05:19:13.184Z,11.11
2022-09-26T05:20:13.133Z,11.10
2022-09-26T05:21:13.134Z,11.11
2022-09-26T05:22:13.103Z,11.13
2022-09-26T05:23:13.111Z,11.13
2022-09-26T05:24:13.102Z,11.13
2022-09-26T05:25:13.071Z,11.13
2022-09-26T05:26:13.055Z,11.14
2022-09-26T05:27:13.054Z,11.16
2022-09-26T05:28:13.035Z,11.17
2022-09-26T05:29:13.258Z,11.14
2022-09-26T05:30:13.012Z,11.16
2022-09-26T05:31:13.087Z,11.17
2022-09-26T05:32:13.005Z,11.16
2022-09-26T05:33:12.974Z,11.16
2022-09-26T05:34:18.482Z,11.17
2022-09-26T05:35:13.968Z,11.17
2022-09-26T05:36:12.942Z,11.17
2022-09-26T05:37:12.945Z,11.20
2022-09-26T05:38:12.942Z,11.20
2022-09-26T05:39:12.921Z,11.19
2022-09-26T05:40:12.944Z,11.17
2022-09-26T05:41:12.891Z,11.17
2022-09-26T05:42:12.882Z,11.19
2022-09-26T05:43:12.872Z,11.21
2022-09-26T05:44:12.887Z,11.21
2022-09-26T05:45:12.841Z,11.21
2022-09-26T05:46:12.903Z,11.24
2022-09-26T05:47:12.853Z,11.27
2022-09-26T05:48:12.811Z,11.24
2022-09-26T05:49:12.799Z,11.24
2022-09-26T05:50:12.807Z,11.28
2022-09-26T05:51:12.779Z,11.27
2022-09-26T05:52:12.769Z,11.27
2022-09-26T05:53:12.750Z,11.28
2022-09-26T05:54:12.750Z,11.27
2022-09-26T05:55:12.740Z,11.31
2022-09-26T05:56:17.635Z,11.31
2022-09-26T05:57:13.698Z,11.31
2022-09-26T05:58:12.717Z,11.29
2022-09-26T05:59:12.748Z,11.31
2022-09-26T06:00:12.690Z,11.31
2022-09-26T06:01:12.847Z,11.29
2022-09-26T06:02:16.104Z,11.28
2022-09-26T06:03:13.638Z,11.28
2022-09-26T06:04:12.653Z,11.28
2022-09-26T06:05:12.627Z,11.27
2022-09-26T06:06:12.606Z,11.29
2022-09-26T06:07:12.607Z,11.29
2022-09-26T06:08:12.589Z,11.29
2022-09-26T06:09:12.657Z,11.31
2022-09-26T06:10:12.619Z,11.29
2022-09-26T06:11:12.557Z,11.31
2022-09-26T06:12:12.567Z,11.31
2022-09-26T06:13:12.538Z,11.28
2022-09-26T06:14:12.519Z,11.25
2022-09-26T06:15:12.517Z,11.25
2022-09-26T06:16:12.517Z,11.20
2022-09-26T06:17:12.486Z,11.25
2022-09-26T06:18:12.478Z,11.21
2022-09-26T06:19:12.466Z,11.24
2022-09-26T06:20:12.473Z,11.24
2022-09-26T06:21:12.473Z,11.27
2022-09-26T06:22:12.436Z,11.24
2022-09-26T06:23:12.423Z,11.21
2022-09-26T06:24:12.414Z,11.20
2022-09-26T06:25:12.433Z,11.24
2022-09-26T06:26:12.405Z,11.16
2022-09-26T06:27:12.373Z,11.14
2022-09-26T06:28:12.368Z,11.13
2022-09-26T06:29:12.403Z,11.13
2022-09-26T06:30:12.342Z,11.16
2022-09-26T06:31:12.347Z,11.16
2022-09-26T06:32:12.326Z,11.13
2022-09-26T06:33:12.315Z,11.16
2022-09-26T06:34:12.304Z,11.19
2022-09-26T06:35:12.289Z,11.19
2022-09-26T06:36:12.291Z,11.19
2022-09-26T06:37:12.261Z,11.17
2022-09-26T06:38:12.271Z,11.19
2022-09-26T06:39:12.315Z,11.20
2022-09-26T06:40:12.277Z,11.21
2022-09-26T06:41:12.223Z,11.21
2022-09-26T06:42:12.215Z,11.20
2022-09-26T06:43:12.193Z,11.21
2022-09-26T06:44:12.190Z,11.24
2022-09-26T06:45:12.174Z,11.25
2022-09-26T06:46:12.182Z,11.24
2022-09-26T06:47:12.167Z,11.19
2022-09-26T06:48:12.159Z,11.17
2022-09-26T06:49:12.156Z,11.13
2022-09-26T06:50:12.120Z,11.09
2022-09-26T06:51:12.104Z,11.06
2022-09-26T06:52:12.110Z,11.01
2022-09-26T06:53:12.081Z,11.01
2022-09-26T06:54:12.073Z,10.99
2022-09-26T06:55:12.142Z,10.98
2022-09-26T06:56:12.050Z,11.01
2022-09-26T06:57:15.041Z,10.99
2022-09-26T06:58:12.033Z,11.01
2022-09-26T06:59:12.086Z,11.02
2022-09-26T07:00:12.000Z,11.07
2022-09-26T07:01:12.169Z,11.06
2022-09-26T07:02:12.137Z,11.02
2022-09-26T07:03:11.981Z,11.03
2022-09-26T07:04:11.959Z,11.06
2022-09-26T07:05:11.956Z,11.06
2022-09-26T07:06:11.941Z,11.06
2022-09-26T07:07:11.939Z,11.07
2022-09-26T07:08:11.919Z,11.07
2022-09-26T07:09:12.685Z,11.03
2022-09-26T07:10:11.887Z,11.01
2022-09-26T07:11:32.879Z,11.01
2022-09-26T07:12:15.061Z,10.96
2022-09-26T07:13:11.857Z,10.96
2022-09-26T07:14:11.857Z,10.96
2022-09-26T07:15:11.836Z,10.95
2022-09-26T07:16:11.862Z,10.96
2022-09-26T07:17:11.836Z,11.01
2022-09-26T07:18:11.807Z,11.02
2022-09-26T07:19:11.822Z,11.06
2022-09-26T07:20:11.778Z,11.03
2022-09-26T07:21:11.765Z,11.02
2022-09-26T07:22:11.755Z,11.06
2022-09-26T07:23:11.756Z,11.06
2022-09-26T07:24:11.757Z,11.07
2022-09-26T07:25:11.726Z,11.07
2022-09-26T07:26:11.716Z,11.07
2022-09-26T07:27:11.727Z,11.06
2022-09-26T07:28:11.695Z,11.06
2022-09-26T07:29:11.712Z,11.03
2022-09-26T07:30:11.673Z,11.01
2022-09-26T07:31:11.709Z,11.01
2022-09-26T07:32:11.645Z,11.02
2022-09-26T07:33:11.632Z,11.02
2022-09-26T07:34:14.617Z,11.06
2022-09-26T07:35:12.777Z,11.06
2022-09-26T07:36:11.596Z,11.07
2022-09-26T07:37:11.598Z,11.07
2022-09-26T07:38:11.592Z,11.07
2022-09-26T07:39:11.661Z,11.11
2022-09-26T07:40:11.604Z,11.14
2022-09-26T07:41:11.543Z,11.14
2022-09-26T07:42:11.533Z,11.17
2022-09-26T07:43:20.351Z,11.17
2022-09-26T07:45:08.723Z,11.17
2022-09-26T07:45:29.968Z,11.25
2022-09-26T07:46:12.568Z,11.27
2022-09-26T07:47:11.481Z,11.32
2022-09-26T07:48:11.461Z,11.35
2022-09-26T07:49:11.470Z,11.38
2022-09-26T07:50:11.456Z,11.44
2022-09-26T07:51:11.420Z,11.46
2022-09-26T07:52:11.426Z,11.50
2022-09-26T07:53:11.554Z,11.53
2022-09-26T07:54:11.434Z,11.59
2022-09-26T07:55:11.380Z,11.64
2022-09-26T07:56:11.379Z,11.68
2022-09-26T07:57:11.361Z,11.72
2022-09-26T07:58:11.362Z,11.77
2022-09-26T07:59:11.362Z,11.80
2022-09-26T08:00:11.335Z,11.82
2022-09-26T08:01:11.351Z,11.89
2022-09-26T08:02:11.368Z,11.93
2022-09-26T08:03:11.335Z,11.94
2022-09-26T08:04:11.309Z,11.96
2022-09-26T08:05:11.288Z,11.94
2022-09-26T08:06:11.271Z,11.97
2022-09-26T08:07:11.250Z,11.96
2022-09-26T08:08:11.241Z,12.02
2022-09-26T08:09:11.220Z,12.08
2022-09-26T08:10:11.237Z,12.11
2022-09-26T08:11:11.208Z,12.13
2022-09-26T08:12:11.188Z,12.20
2022-09-26T08:13:11.188Z,12.23
2022-09-26T08:14:11.171Z,12.29
2022-09-26T08:15:11.158Z,12.27
2022-09-26T08:16:11.259Z,12.21
2022-09-26T08:17:14.267Z,12.16
2022-09-26T08:18:11.116Z,12.12
2022-09-26T08:19:18.656Z,12.09
2022-09-26T08:20:11.111Z,12.13
2022-09-26T08:21:11.127Z,12.19
2022-09-26T08:22:11.078Z,12.24
2022-09-26T08:23:11.059Z,12.27
2022-09-26T08:24:11.046Z,12.33
2022-09-26T08:25:11.066Z,12.31
2022-09-26T08:26:11.029Z,12.29
2022-09-26T08:27:11.029Z,12.24
2022-09-26T08:28:11.007Z,12.24
2022-09-26T08:29:10.998Z,12.26
2022-09-26T08:30:10.997Z,12.29
2022-09-26T08:31:11.006Z,12.31
2022-09-26T08:32:10.977Z,12.39
2022-09-26T08:33:10.956Z,12.41
2022-09-26T08:34:11.236Z,12.45
2022-09-26T08:35:10.923Z,12.44
2022-09-26T08:36:10.957Z,12.46
2022-09-26T08:37:10.935Z,12.45
2022-09-26T08:38:10.912Z,12.46
2022-09-26T08:39:10.892Z,12.38
2022-09-26T08:40:10.925Z,12.34
2022-09-26T08:41:10.886Z,12.37
2022-09-26T08:42:10.858Z,12.37
2022-09-26T08:43:10.843Z,12.33
2022-09-26T08:44:10.815Z,12.30
2022-09-26T08:45:10.832Z,12.30
2022-09-26T08:46:10.854Z,12.33
2022-09-26T08:47:10.799Z,12.37
2022-09-26T08:48:10.784Z,12.39
2022-09-26T08:49:10.776Z,12.45
2022-09-26T08:50:10.754Z,12.52
2022-09-26T08:51:10.743Z,12.57
2022-09-26T08:52:10.722Z,12.60
2022-09-26T08:53:10.716Z,12.63
2022-09-26T08:54:10.703Z,12.82
2022-09-26T08:55:10.693Z,12.85
2022-09-26T08:56:10.684Z,12.82
2022-09-26T08:57:10.674Z,12.79
2022-09-26T08:58:10.663Z,12.89
2022-09-26T08:59:10.641Z,13.00
2022-09-26T09:00:10.646Z,12.99
2022-09-26T09:01:10.633Z,12.92
2022-09-26T09:02:10.775Z,12.97
2022-09-26T09:03:10.716Z,12.97
2022-09-26T09:04:10.593Z,12.89
2022-09-26T09:05:10.582Z,12.85
2022-09-26T09:06:10.579Z,12.87
2022-09-26T09:07:10.563Z,12.85
2022-09-26T09:08:10.564Z,12.87
2022-09-26T09:09:10.533Z,13.02
2022-09-26T09:10:10.520Z,13.18
2022-09-26T09:11:10.526Z,13.21
2022-09-26T09:12:10.490Z,13.15
2022-09-26T09:13:10.500Z,13.11
2022-09-26T09:14:10.469Z,13.14
2022-09-26T09:15:26.532Z,13.18
2022-09-26T09:16:11.490Z,13.21
2022-09-26T09:17:10.445Z,13.24
2022-09-26T09:18:13.646Z,13.29
2022-09-26T09:19:10.420Z,13.27
2022-09-26T09:20:10.412Z,13.29
2022-09-26T09:21:10.401Z,13.33
2022-09-26T09:22:10.380Z,13.37
2022-09-26T09:23:10.377Z,13.40
2022-09-26T09:24:10.368Z,13.32
2022-09-26T09:25:10.358Z,13.32
2022-09-26T09:28:11.320Z,13.29
2022-09-26T09:29:10.733Z,13.24
2022-09-26T09:30:16.488Z,13.24
2022-09-26T09:31:11.430Z,13.21
2022-09-26T09:32:10.268Z,13.17
2022-09-26T09:33:10.276Z,13.12
2022-09-26T09:34:10.250Z,13.07
2022-09-26T09:35:10.246Z,13.02
2022-09-26T09:36:10.227Z,12.95
2022-09-26T09:37:10.220Z,12.84
2022-09-26T09:38:10.206Z,12.77
2022-09-26T09:39:10.201Z,12.66
2022-09-26T09:40:10.215Z,12.62
2022-09-26T09:41:10.167Z,12.54
2022-09-26T09:42:10.159Z,12.46
2022-09-26T09:43:10.147Z,12.39
2022-09-26T09:44:10.126Z,12.38
2022-09-26T09:45:10.126Z,12.34
2022-09-26T09:46:10.175Z,12.34
2022-09-26T09:47:10.095Z,12.38
2022-09-26T09:48:10.097Z,12.34
2022-09-26T09:49:10.077Z,12.27
2022-09-26T09:50:10.064Z,12.30
2022-09-26T09:51:10.095Z,12.31
2022-09-26T09:52:10.035Z,12.34
2022-09-26T09:53:10.034Z,12.39
2022-09-26T09:54:10.064Z,12.44
2022-09-26T09:55:10.007Z,12.49
2022-09-26T09:56:10.012Z,12.48
2022-09-26T09:57:10.026Z,12.52
2022-09-26T09:58:09.981Z,12.60
2022-09-26T09:59:09.959Z,12.62
2022-09-26T10:00:09.962Z,12.66
2022-09-26T10:01:09.950Z,12.66
2022-09-26T10:02:09.934Z,12.71
2022-09-26T10:03:10.028Z,12.75
2022-09-26T10:04:09.926Z,12.77
2022-09-26T10:05:09.903Z,12.78
2022-09-26T10:06:44.170Z,12.77
2022-09-26T10:07:10.899Z,12.78
2022-09-26T10:08:09.873Z,12.77
2022-09-26T10:09:39.242Z,12.78
2022-09-26T10:10:10.842Z,12.78
2022-09-26T10:11:09.852Z,12.77
2022-09-26T10:12:09.836Z,12.78
2022-09-26T10:13:09.817Z,12.79
2022-09-26T10:14:09.865Z,12.81
2022-09-26T10:15:09.818Z,12.78
2022-09-26T10:16:09.803Z,12.79
2022-09-26T10:17:09.776Z,12.77
2022-09-26T10:18:26.779Z,12.78
2022-09-26T10:19:10.740Z,12.79
2022-09-26T10:20:09.721Z,12.74
2022-09-26T10:21:09.729Z,12.75
2022-09-26T10:22:09.701Z,12.67
2022-09-26T10:23:09.730Z,12.66
2022-09-26T10:24:09.764Z,12.66
2022-09-26T10:25:09.678Z,12.66
2022-09-26T10:26:09.652Z,12.66
2022-09-26T10:27:09.648Z,12.69
2022-09-26T10:28:09.630Z,12.70
2022-09-26T10:29:09.614Z,12.69
2022-09-26T10:30:09.609Z,12.69
2022-09-26T10:33:14.070Z,12.95
2022-09-26T10:34:14.130Z,12.97
2022-09-26T10:35:18.792Z,13.00
2022-09-26T10:36:15.021Z,13.06
2022-09-26T10:37:14.068Z,13.17
2022-09-26T10:38:13.998Z,13.27
2022-09-26T10:39:13.987Z,13.32
2022-09-26T10:40:14.066Z,13.36
2022-09-26T10:41:13.969Z,13.46
2022-09-26T10:42:13.960Z,13.55
2022-09-26T10:43:13.959Z,13.62
2022-09-26T10:44:14.103Z,13.56
2022-09-26T10:45:13.922Z,13.52
2022-09-26T10:46:13.950Z,13.55
2022-09-26T10:47:13.887Z,13.58
2022-09-26T10:48:13.915Z,13.59
2022-09-26T10:49:13.867Z,13.61
2022-09-26T10:50:13.930Z,13.67
2022-09-26T10:51:13.859Z,13.70
2022-09-26T10:52:18.414Z,13.76
2022-09-26T10:53:14.851Z,13.73
2022-09-26T10:54:13.850Z,13.70
2022-09-26T10:55:13.814Z,13.67
2022-09-26T10:56:13.793Z,13.65
2022-09-26T10:57:13.788Z,13.69
2022-09-26T10:58:14.193Z,13.62
2022-09-26T10:59:13.779Z,13.70
2022-09-26T11:00:13.806Z,13.65
2022-09-26T11:01:13.753Z,13.65
2022-09-26T11:02:13.850Z,13.65
2022-09-26T11:03:13.780Z,13.71
2022-09-26T11:04:13.840Z,13.73
2022-09-26T11:05:13.686Z,13.73
2022-09-26T11:06:13.677Z,13.77
2022-09-26T11:07:13.673Z,13.87
2022-09-26T11:08:13.681Z,13.89
2022-09-26T11:09:13.644Z,13.83
2022-09-26T11:10:13.682Z,13.88
2022-09-26T11:11:13.624Z,13.89
2022-09-26T11:12:13.624Z,13.94
2022-09-26T11:13:13.605Z,13.81
2022-09-26T11:14:13.635Z,13.84
2022-09-26T11:15:13.574Z,13.89
2022-09-26T11:16:13.692Z,13.92
2022-09-26T11:17:13.555Z,13.99
2022-09-26T11:18:13.542Z,13.98
2022-09-26T11:19:13.621Z,13.96
2022-09-26T11:20:13.524Z,13.99
2022-09-26T11:21:27.834Z,13.99
2022-09-26T11:22:14.501Z,14.02
2022-09-26T11:23:13.483Z,14.04
2022-09-26T11:24:13.508Z,14.04
2022-09-26T11:25:13.481Z,14.09
2022-09-26T11:26:13.454Z,14.12
2022-09-26T11:27:13.471Z,14.16
2022-09-26T11:28:13.423Z,14.17
2022-09-26T11:29:13.497Z,14.14
2022-09-26T11:30:13.428Z,14.19
2022-09-26T11:31:13.464Z,14.16
2022-09-26T11:32:13.392Z,14.21
2022-09-26T11:33:13.405Z,14.28
2022-09-26T11:34:13.356Z,14.32
2022-09-26T11:35:13.375Z,14.29
2022-09-26T11:36:13.343Z,14.31
2022-09-26T11:37:13.323Z,14.32
2022-09-26T11:38:13.313Z,14.37
2022-09-26T11:39:13.314Z,14.31
2022-09-26T11:40:13.391Z,14.29
2022-09-26T11:41:13.282Z,14.35
2022-09-26T11:42:13.272Z,14.38
2022-09-26T11:43:13.281Z,14.32
2022-09-26T11:44:13.242Z,14.42
2022-09-26T11:45:13.245Z,14.47
2022-09-26T11:46:13.256Z,14.49
2022-09-26T11:47:13.254Z,14.46
2022-09-26T11:48:13.190Z,14.47
2022-09-26T11:49:13.235Z,14.49
2022-09-26T11:50:13.188Z,14.46
2022-09-26T11:51:13.179Z,14.35
2022-09-26T11:52:13.151Z,14.25
2022-09-26T11:53:13.146Z,14.24
2022-09-26T11:54:13.150Z,14.20
2022-09-26T11:55:13.181Z,14.21
2022-09-26T11:56:13.132Z,14.21
2022-09-26T11:57:13.099Z,14.24
2022-09-26T11:58:13.090Z,14.20
2022-09-26T11:59:13.080Z,14.27
2022-09-26T12:00:13.069Z,14.21
2022-09-26T12:01:13.071Z,14.25
2022-09-26T12:02:13.072Z,14.31
2022-09-26T12:03:13.195Z,14.31
2022-09-26T12:04:13.145Z,14.29
2022-09-26T12:05:13.009Z,14.34
2022-09-26T12:06:12.998Z,14.19
2022-09-26T12:07:12.978Z,14.19
2022-09-26T12:08:12.992Z,14.25
2022-09-26T12:09:12.958Z,14.38
2022-09-26T12:10:12.948Z,14.47
2022-09-26T12:11:12.928Z,14.54
2022-09-26T12:12:12.930Z,14.69
2022-09-26T12:13:12.924Z,14.71
2022-09-26T12:14:12.957Z,14.71
2022-09-26T12:15:12.901Z,14.75
2022-09-26T12:16:12.954Z,14.71
2022-09-26T12:17:12.877Z,14.71
2022-09-26T12:18:12.869Z,14.67
2022-09-26T12:19:16.264Z,14.68
2022-09-26T12:20:12.837Z,14.69
2022-09-26T12:21:12.839Z,14.72
2022-09-26T12:22:12.808Z,14.67
2022-09-26T12:23:12.807Z,14.68
2022-09-26T12:24:12.881Z,14.65
2022-09-26T12:25:16.542Z,14.74
2022-09-26T12:26:13.760Z,14.74
2022-09-26T12:27:12.759Z,14.78
2022-09-26T12:28:12.736Z,14.84
2022-09-26T12:29:12.745Z,14.90
2022-09-26T12:30:12.716Z,14.95
2022-09-26T12:31:16.124Z,15.06
2022-09-26T12:32:13.697Z,15.09
2022-09-26T12:33:12.701Z,15.13
2022-09-26T12:34:12.813Z,15.01
2022-09-26T12:35:12.668Z,15.01
2022-09-26T12:36:12.656Z,14.95
2022-09-26T12:37:12.647Z,14.88
2022-09-26T12:38:12.625Z,14.81
2022-09-26T12:39:12.718Z,14.81
2022-09-26T12:40:12.696Z,14.78
2022-09-26T12:41:12.586Z,14.78
2022-09-26T12:42:12.607Z,14.78
2022-09-26T12:43:12.635Z,14.81
2022-09-26T12:44:12.556Z,14.81
2022-09-26T12:45:12.555Z,14.88
2022-09-26T12:46:12.617Z,14.94
2022-09-26T12:47:12.524Z,14.99
2022-09-26T12:48:12.504Z,14.99
2022-09-26T12:49:12.546Z,15.01
2022-09-26T12:50:12.526Z,14.99
2022-09-26T12:51:12.474Z,15.01
2022-09-26T12:52:12.493Z,14.98
2022-09-26T12:53:12.472Z,14.94
2022-09-26T12:54:12.443Z,14.90
2022-09-26T12:55:12.440Z,14.75
2022-09-26T12:56:12.466Z,14.71